ETEB 141226Z AUTO 00000KT 2400 HZ CLR 23/13 A2998 RMK AO2 SLP150 $ ETIK 141156Z AUTO 00000KT 9999 CLR 23/14 A2998 RMK AO2 SLP146 T02340135 10234 20079 57019 EDDE 141250Z 22007KT 180V260 CAVOK 25/12 Q1014 NOSIG EDDF 141250Z 18007KT 150V210 CAVOK 23/13 Q1012 NOSIG ETIC 141241Z AUTO 00000KT 1400 R32/0800VP1500 HZ CLR 23/13 A2997 RMK AO2 VIS 0400V1400 SLP144 $ EDQM 141250Z 16004KT 120V210 CAVOK 22/13 Q1016 ETIH 141156Z AUTO 06003KT 9999 CLR 21/19 A3000 RMK AO2 SLP155 T02130188 10213 20057 57020 ETSI 141220Z 04002KT 9999 FEW140 22/13 Q1015 BLU+BLU+ EDDP 141250Z 09007KT 060V120 CAVOK 24/15 Q1014 NOSIG EDDM 141250Z 06006KT 030V090 CAVOK 22/11 Q1015 NOSIG ETSN 141220Z 11004KT 9999 FEW140 22/12 Q1015 BLU+BLU+ ETHN 141220Z 13004KT 9999 FEW300 24/11 Q1014 BLU+BLU+ EDDN 141250Z 15004KT 100V190 CAVOK 25/14 Q1014 NOSIG EDDS 141250Z VRB03KT CAVOK 25/11 Q1014 NOSIG

METAR Messwerte

Klicken Sie auf einen Ort, um die 36h-Historie abzurufen

Ort
m ü. NN
Zeit Temperatur Taupunkt Rel.
Luftfeuchte
Luftdruck:
Altimeter
NN
Station
Wind in Beaufort
(Knoten)
Sichtweite
(Meter)
Wolken
(Meter über Grund)
Wettererscheinung
Ansbach
467
Mo 14.10. 14:26231353 %1015
1013
960
Windstill2400 Dunst
Bad Windsheim / Illesheim
325
Mo 14.10. 13:56231457 %1015
1014
977
Windstill>= 10000  
Erfurt-Bindersleben
323
Mo 14.10. 14:50251244 %1014
1013
976
SW 3 (7)
S - W
>= 10000Nicht signifikant 
Frankfurt
113
Mo 14.10. 14:50231353 %1012
1012
999
S 3 (7)
SSO - SSW
>= 10000Nicht signifikant 
Grafenwöhr
415
Mo 14.10. 14:41231353 %1015
1014
966
Windstill1400 Dunst
Hof
568
Mo 14.10. 14:50221357 %1016
1014
949
SSO 2 (4)
OSO - SSW
>= 10000Nicht signifikant 
Hohenfels
442
Mo 14.10. 13:56211988 %1016
1015
964
ONO 2 (3)>= 10000  
Ingolstadt
370
Mo 14.10. 14:20221357 %1015
1014
971
NO 1 (2)>= 10000Leicht bewölkt (4300) 
Leipzig-Schkeuditz
149
Mo 14.10. 14:50241557 %1014
1013
996
O 3 (7)
ONO - OSO
>= 10000Nicht signifikant 
München
447
Mo 14.10. 14:50221150 %1015
1014
962
ONO 2 (6)
NNO - O
>= 10000Nicht signifikant 
Neuburg/Donau
387
Mo 14.10. 14:20221253 %1015
1014
969
OSO 2 (4)>= 10000Leicht bewölkt (4300) 
Niederstetten
473
Mo 14.10. 14:20241144 %1014
1012
958
SO 2 (4)>= 10000Leicht bewölkt (9100) 
Nürnberg
312
Mo 14.10. 14:50251450 %1014
1013
977
SSO 2 (4)
O - S
>= 10000Nicht signifikant 
Stuttgart
419
Mo 14.10. 14:50251141 %1014
1012
965
Uml 2 (3)>= 10000Nicht signifikant 

Altimeter: Einstellung am Altimeter (Höhenmesser), die Höhe 0 muss auf diesen Luftdruckwert zeigen, damit das Gerät die Stationshöhe richtig anzeigt.

NN: Luftdruck reduziert auf "Normal Null", auf Meereshöhe, dieser von der Temperatur abhängige Wert wird bisweilen unkorrekt einfach als "Luftdruck" bezeichnet. Eigentlich nur eine fiktive Größe, die es erlaubt, Stationen auf unterschiedlichen Höhen miteinander zu vergleichen.

Station: Realer Luftdruck an der Station.